sensor_id;sensor_type;location;lat;lon;timestamp;P1;durP1;ratioP1;P2;durP2;ratioP2
44588;SDS011;30298;52.562;13.414;2023-06-01T00:01:02;6.43;;;3.30;;
44588;SDS011;30298;52.562;13.414;2023-06-01T00:03:29;6.90;;;2.85;;
44588;SDS011;30298;52.562;13.414;2023-06-01T00:05:54;6.35;;;2.83;;
44588;SDS011;30298;52.562;13.414;2023-06-01T00:08:20;7.57;;;2.70;;
44588;SDS011;30298;52.562;13.414;2023-06-01T00:10:47;5.18;;;2.75;;
44588;SDS011;30298;52.562;13.414;2023-06-01T00:13:12;4.10;;;2.47;;
44588;SDS011;30298;52.562;13.414;2023-06-01T00:15:38;4.43;;;2.50;;
44588;SDS011;30298;52.562;13.414;2023-06-01T00:18:03;3.25;;;2.30;;
44588;SDS011;30298;52.562;13.414;2023-06-01T00:20:30;8.45;;;2.58;;
44588;SDS011;30298;52.562;13.414;2023-06-01T00:22:57;4.00;;;2.40;;
44588;SDS011;30298;52.562;13.414;2023-06-01T00:25:24;6.60;;;2.60;;
44588;SDS011;30298;52.562;13.414;2023-06-01T00:27:50;6.50;;;2.60;;
44588;SDS011;30298;52.562;13.414;2023-06-01T00:30:15;3.97;;;2.70;;
44588;SDS011;30298;52.562;13.414;2023-06-01T00:32:40;4.63;;;2.73;;
44588;SDS011;30298;52.562;13.414;2023-06-01T00:35:05;6.87;;;3.07;;
44588;SDS011;30298;52.562;13.414;2023-06-01T00:37:31;4.90;;;2.35;;
44588;SDS011;30298;52.562;13.414;2023-06-01T00:39:56;6.33;;;3.00;;
44588;SDS011;30298;52.562;13.414;2023-06-01T00:42:21;5.93;;;3.00;;
44588;SDS011;30298;52.562;13.414;2023-06-01T00:44:46;5.53;;;3.30;;
44588;SDS011;30298;52.562;13.414;2023-06-01T00:47:12;7.80;;;2.90;;
44588;SDS011;30298;52.562;13.414;2023-06-01T00:49:37;5.97;;;2.90;;
44588;SDS011;30298;52.562;13.414;2023-06-01T00:52:02;7.15;;;2.60;;
44588;SDS011;30298;52.562;13.414;2023-06-01T00:54:28;4.67;;;2.63;;
44588;SDS011;30298;52.562;13.414;2023-06-01T00:56:53;3.17;;;2.25;;
44588;SDS011;30298;52.562;13.414;2023-06-01T00:59:19;9.17;;;2.80;;
44588;SDS011;30298;52.562;13.414;2023-06-01T01:01:44;3.88;;;2.50;;
44588;SDS011;30298;52.562;13.414;2023-06-01T01:04:10;6.30;;;3.10;;
44588;SDS011;30298;52.562;13.414;2023-06-01T01:07:00;8.57;;;2.60;;
44588;SDS011;30298;52.562;13.414;2023-06-01T01:12:02;8.60;;;2.80;;
44588;SDS011;30298;52.562;13.414;2023-06-01T01:17:36;5.13;;;3.00;;
44588;SDS011;30298;52.562;13.414;2023-06-01T01:20:13;6.93;;;2.83;;
44588;SDS011;30298;52.562;13.414;2023-06-01T01:22:47;6.80;;;2.65;;
44588;SDS011;30298;52.562;13.414;2023-06-01T01:30:24;4.22;;;2.78;;
44588;SDS011;30298;52.562;13.414;2023-06-01T01:32:51;8.00;;;2.80;;
44588;SDS011;30298;52.562;13.414;2023-06-01T01:35:18;4.47;;;2.78;;
44588;SDS011;30298;52.562;13.414;2023-06-01T01:37:50;5.47;;;2.60;;
44588;SDS011;30298;52.562;13.414;2023-06-01T01:40:16;4.35;;;2.60;;
44588;SDS011;30298;52.562;13.414;2023-06-01T01:42:41;6.70;;;2.93;;
44588;SDS011;30298;52.562;13.414;2023-06-01T01:45:06;8.87;;;3.23;;
44588;SDS011;30298;52.562;13.414;2023-06-01T01:47:36;5.57;;;3.40;;
44588;SDS011;30298;52.562;13.414;2023-06-01T01:50:06;7.22;;;2.90;;
44588;SDS011;30298;52.562;13.414;2023-06-01T01:52:35;9.25;;;3.50;;
44588;SDS011;30298;52.562;13.414;2023-06-01T01:55:03;6.22;;;3.00;;
44588;SDS011;30298;52.562;13.414;2023-06-01T01:57:29;7.03;;;3.28;;
44588;SDS011;30298;52.562;13.414;2023-06-01T01:59:55;7.38;;;2.90;;
44588;SDS011;30298;52.562;13.414;2023-06-01T02:02:21;6.20;;;2.95;;
44588;SDS011;30298;52.562;13.414;2023-06-01T02:04:46;6.72;;;2.65;;
44588;SDS011;30298;52.562;13.414;2023-06-01T02:07:12;4.23;;;2.87;;
44588;SDS011;30298;52.562;13.414;2023-06-01T02:09:37;8.70;;;3.00;;
44588;SDS011;30298;52.562;13.414;2023-06-01T02:12:06;7.70;;;3.20;;
44588;SDS011;30298;52.562;13.414;2023-06-01T02:14:32;6.57;;;2.65;;
44588;SDS011;30298;52.562;13.414;2023-06-01T02:16:57;7.85;;;2.92;;
44588;SDS011;30298;52.562;13.414;2023-06-01T02:19:22;5.40;;;3.10;;
44588;SDS011;30298;52.562;13.414;2023-06-01T02:21:48;7.47;;;3.23;;
44588;SDS011;30298;52.562;13.414;2023-06-01T02:24:13;8.50;;;3.40;;
44588;SDS011;30298;52.562;13.414;2023-06-01T02:26:38;6.95;;;3.45;;
44588;SDS011;30298;52.562;13.414;2023-06-01T02:29:04;6.67;;;3.07;;
44588;SDS011;30298;52.562;13.414;2023-06-01T02:31:32;7.70;;;3.40;;
44588;SDS011;30298;52.562;13.414;2023-06-01T02:33:58;4.78;;;3.05;;
44588;SDS011;30298;52.562;13.414;2023-06-01T02:36:24;9.52;;;3.50;;
44588;SDS011;30298;52.562;13.414;2023-06-01T02:38:50;6.90;;;3.25;;
44588;SDS011;30298;52.562;13.414;2023-06-01T02:41:15;8.63;;;3.80;;
44588;SDS011;30298;52.562;13.414;2023-06-01T02:43:41;6.17;;;3.17;;
44588;SDS011;30298;52.562;13.414;2023-06-01T02:46:06;7.23;;;3.70;;
44588;SDS011;30298;52.562;13.414;2023-06-01T02:48:31;9.67;;;3.87;;
44588;SDS011;30298;52.562;13.414;2023-06-01T02:50:57;12.17;;;3.80;;
44588;SDS011;30298;52.562;13.414;2023-06-01T02:53:22;5.07;;;3.63;;
44588;SDS011;30298;52.562;13.414;2023-06-01T02:55:47;10.23;;;4.60;;
44588;SDS011;30298;52.562;13.414;2023-06-01T02:58:12;7.33;;;3.90;;
44588;SDS011;30298;52.562;13.414;2023-06-01T03:00:44;7.50;;;3.85;;
44588;SDS011;30298;52.562;13.414;2023-06-01T03:03:09;5.68;;;3.50;;
44588;SDS011;30298;52.562;13.414;2023-06-01T03:05:35;5.33;;;3.57;;
44588;SDS011;30298;52.562;13.414;2023-06-01T03:08:00;9.40;;;3.60;;
44588;SDS011;30298;52.562;13.414;2023-06-01T03:10:26;10.20;;;4.97;;
44588;SDS011;30298;52.562;13.414;2023-06-01T03:12:51;13.20;;;5.37;;
44588;SDS011;30298;52.562;13.414;2023-06-01T03:15:16;8.87;;;4.57;;
44588;SDS011;30298;52.562;13.414;2023-06-01T03:17:41;11.43;;;4.57;;
44588;SDS011;30298;52.562;13.414;2023-06-01T03:20:07;10.50;;;4.80;;
44588;SDS011;30298;52.562;13.414;2023-06-01T03:22:40;8.68;;;4.30;;
44588;SDS011;30298;52.562;13.414;2023-06-01T03:25:05;9.13;;;5.13;;
44588;SDS011;30298;52.562;13.414;2023-06-01T03:27:32;7.38;;;4.13;;
44588;SDS011;30298;52.562;13.414;2023-06-01T03:29:57;7.47;;;4.18;;
44588;SDS011;30298;52.562;13.414;2023-06-01T03:32:25;13.37;;;4.87;;
44588;SDS011;30298;52.562;13.414;2023-06-01T03:34:51;8.93;;;3.97;;
44588;SDS011;30298;52.562;13.414;2023-06-01T03:37:16;9.68;;;4.03;;
44588;SDS011;30298;52.562;13.414;2023-06-01T03:39:42;7.93;;;4.32;;
44588;SDS011;30298;52.562;13.414;2023-06-01T03:42:07;13.33;;;5.20;;
44588;SDS011;30298;52.562;13.414;2023-06-01T03:44:33;9.40;;;4.90;;
44588;SDS011;30298;52.562;13.414;2023-06-01T03:46:58;9.27;;;4.75;;
44588;SDS011;30298;52.562;13.414;2023-06-01T03:49:23;10.10;;;4.73;;
44588;SDS011;30298;52.562;13.414;2023-06-01T03:51:48;11.80;;;5.13;;
44588;SDS011;30298;52.562;13.414;2023-06-01T03:54:14;9.17;;;5.93;;
44588;SDS011;30298;52.562;13.414;2023-06-01T03:56:39;11.27;;;5.63;;
44588;SDS011;30298;52.562;13.414;2023-06-01T03:59:05;13.88;;;6.10;;
44588;SDS011;30298;52.562;13.414;2023-06-01T04:01:35;13.82;;;6.07;;
44588;SDS011;30298;52.562;13.414;2023-06-01T04:04:04;16.48;;;5.70;;
44588;SDS011;30298;52.562;13.414;2023-06-01T04:06:30;15.55;;;6.68;;
44588;SDS011;30298;52.562;13.414;2023-06-01T04:09:00;9.82;;;5.20;;
44588;SDS011;30298;52.562;13.414;2023-06-01T04:11:31;14.38;;;7.28;;
44588;SDS011;30298;52.562;13.414;2023-06-01T04:13:57;11.93;;;7.32;;
44588;SDS011;30298;52.562;13.414;2023-06-01T04:16:22;16.60;;;6.83;;
44588;SDS011;30298;52.562;13.414;2023-06-01T04:18:47;16.17;;;6.83;;
44588;SDS011;30298;52.562;13.414;2023-06-01T04:21:12;12.63;;;6.00;;
44588;SDS011;30298;52.562;13.414;2023-06-01T04:23:38;15.77;;;6.37;;
44588;SDS011;30298;52.562;13.414;2023-06-01T04:26:07;12.57;;;6.38;;
44588;SDS011;30298;52.562;13.414;2023-06-01T04:28:33;14.85;;;6.63;;
44588;SDS011;30298;52.562;13.414;2023-06-01T04:30:58;15.90;;;6.73;;
44588;SDS011;30298;52.562;13.414;2023-06-01T04:33:24;12.80;;;7.05;;
44588;SDS011;30298;52.562;13.414;2023-06-01T04:35:49;15.13;;;7.60;;
44588;SDS011;30298;52.562;13.414;2023-06-01T04:38:18;14.73;;;7.47;;
44588;SDS011;30298;52.562;13.414;2023-06-01T04:40:43;14.90;;;8.00;;
44588;SDS011;30298;52.562;13.414;2023-06-01T04:43:12;18.05;;;6.72;;
44588;SDS011;30298;52.562;13.414;2023-06-01T04:45:44;17.10;;;7.57;;
44588;SDS011;30298;52.562;13.414;2023-06-01T04:48:09;14.18;;;7.57;;
44588;SDS011;30298;52.562;13.414;2023-06-01T04:50:35;14.63;;;8.60;;
44588;SDS011;30298;52.562;13.414;2023-06-01T04:53:00;13.30;;;8.37;;
44588;SDS011;30298;52.562;13.414;2023-06-01T04:55:26;14.15;;;7.47;;
44588;SDS011;30298;52.562;13.414;2023-06-01T04:57:51;14.25;;;7.68;;
44588;SDS011;30298;52.562;13.414;2023-06-01T05:00:16;15.20;;;8.33;;
44588;SDS011;30298;52.562;13.414;2023-06-01T05:02:43;15.98;;;7.93;;
44588;SDS011;30298;52.562;13.414;2023-06-01T05:05:10;15.48;;;8.27;;
44588;SDS011;30298;52.562;13.414;2023-06-01T05:07:39;18.25;;;8.80;;
44588;SDS011;30298;52.562;13.414;2023-06-01T05:10:05;14.07;;;8.13;;
44588;SDS011;30298;52.562;13.414;2023-06-01T05:12:31;13.25;;;8.38;;
44588;SDS011;30298;52.562;13.414;2023-06-01T05:14:57;21.02;;;9.60;;
44588;SDS011;30298;52.562;13.414;2023-06-01T05:17:22;16.10;;;8.13;;
44588;SDS011;30298;52.562;13.414;2023-06-01T05:19:47;15.90;;;8.30;;
44588;SDS011;30298;52.562;13.414;2023-06-01T05:22:13;12.63;;;8.30;;
44588;SDS011;30298;52.562;13.414;2023-06-01T05:24:38;14.73;;;8.07;;
44588;SDS011;30298;52.562;13.414;2023-06-01T05:27:04;13.10;;;8.03;;
44588;SDS011;30298;52.562;13.414;2023-06-01T05:29:32;16.70;;;8.02;;
44588;SDS011;30298;52.562;13.414;2023-06-01T05:31:57;16.07;;;7.97;;
44588;SDS011;30298;52.562;13.414;2023-06-01T05:34:22;16.10;;;8.27;;
44588;SDS011;30298;52.562;13.414;2023-06-01T05:36:48;15.57;;;7.20;;
44588;SDS011;30298;52.562;13.414;2023-06-01T05:39:16;13.75;;;9.13;;
44588;SDS011;30298;52.562;13.414;2023-06-01T05:41:42;12.60;;;6.72;;
44588;SDS011;30298;52.562;13.414;2023-06-01T05:44:07;18.47;;;7.23;;
44588;SDS011;30298;52.562;13.414;2023-06-01T05:46:32;15.87;;;7.73;;
44588;SDS011;30298;52.562;13.414;2023-06-01T05:48:58;13.47;;;6.80;;
44588;SDS011;30298;52.562;13.414;2023-06-01T05:51:23;12.47;;;6.27;;
44588;SDS011;30298;52.562;13.414;2023-06-01T05:53:49;13.77;;;6.32;;
44588;SDS011;30298;52.562;13.414;2023-06-01T05:56:15;16.73;;;9.07;;
44588;SDS011;30298;52.562;13.414;2023-06-01T05:58:41;16.77;;;7.43;;
44588;SDS011;30298;52.562;13.414;2023-06-01T06:01:06;11.60;;;6.20;;
44588;SDS011;30298;52.562;13.414;2023-06-01T06:03:31;10.80;;;6.30;;
44588;SDS011;30298;52.562;13.414;2023-06-01T06:05:57;12.00;;;6.53;;
44588;SDS011;30298;52.562;13.414;2023-06-01T06:08:22;12.60;;;7.10;;
44588;SDS011;30298;52.562;13.414;2023-06-01T06:10:47;14.00;;;6.40;;
44588;SDS011;30298;52.562;13.414;2023-06-01T06:13:13;12.00;;;7.13;;
44588;SDS011;30298;52.562;13.414;2023-06-01T06:18:04;10.50;;;6.50;;
44588;SDS011;30298;52.562;13.414;2023-06-01T06:20:30;14.00;;;6.68;;
44588;SDS011;30298;52.562;13.414;2023-06-01T06:22:55;9.50;;;6.17;;
44588;SDS011;30298;52.562;13.414;2023-06-01T06:25:21;15.10;;;6.33;;
44588;SDS011;30298;52.562;13.414;2023-06-01T06:27:46;11.00;;;5.00;;
44588;SDS011;30298;52.562;13.414;2023-06-01T06:30:12;13.82;;;6.38;;
44588;SDS011;30298;52.562;13.414;2023-06-01T06:32:38;11.43;;;6.00;;
44588;SDS011;30298;52.562;13.414;2023-06-01T06:35:03;13.40;;;6.30;;
44588;SDS011;30298;52.562;13.414;2023-06-01T06:37:29;12.45;;;6.75;;
44588;SDS011;30298;52.562;13.414;2023-06-01T06:39:55;10.52;;;5.80;;
44588;SDS011;30298;52.562;13.414;2023-06-01T06:42:20;15.63;;;6.27;;
44588;SDS011;30298;52.562;13.414;2023-06-01T06:44:45;16.87;;;5.77;;
44588;SDS011;30298;52.562;13.414;2023-06-01T06:47:10;13.77;;;5.70;;
44588;SDS011;30298;52.562;13.414;2023-06-01T06:49:40;13.38;;;5.60;;
44588;SDS011;30298;52.562;13.414;2023-06-01T06:52:05;12.07;;;5.87;;
44588;SDS011;30298;52.562;13.414;2023-06-01T06:54:31;9.82;;;5.88;;
44588;SDS011;30298;52.562;13.414;2023-06-01T06:56:56;10.47;;;5.17;;
44588;SDS011;30298;52.562;13.414;2023-06-01T06:59:21;12.93;;;5.90;;
44588;SDS011;30298;52.562;13.414;2023-06-01T07:01:47;14.80;;;5.80;;
44588;SDS011;30298;52.562;13.414;2023-06-01T07:04:12;12.37;;;5.67;;
44588;SDS011;30298;52.562;13.414;2023-06-01T07:06:37;10.52;;;6.03;;
44588;SDS011;30298;52.562;13.414;2023-06-01T07:09:03;9.43;;;5.50;;
44588;SDS011;30298;52.562;13.414;2023-06-01T07:11:30;12.48;;;5.63;;
44588;SDS011;30298;52.562;13.414;2023-06-01T07:13:57;11.65;;;5.78;;
44588;SDS011;30298;52.562;13.414;2023-06-01T07:16:25;12.10;;;5.07;;
44588;SDS011;30298;52.562;13.414;2023-06-01T07:18:53;10.63;;;6.00;;
44588;SDS011;30298;52.562;13.414;2023-06-01T07:21:19;12.27;;;5.47;;
44588;SDS011;30298;52.562;13.414;2023-06-01T07:23:45;10.20;;;4.63;;
44588;SDS011;30298;52.562;13.414;2023-06-01T07:28:36;11.68;;;5.03;;
44588;SDS011;30298;52.562;13.414;2023-06-01T07:31:02;13.55;;;5.40;;
44588;SDS011;30298;52.562;13.414;2023-06-01T07:33:27;10.57;;;5.57;;
44588;SDS011;30298;52.562;13.414;2023-06-01T07:35:54;12.13;;;5.07;;
44588;SDS011;30298;52.562;13.414;2023-06-01T07:38:19;10.18;;;5.70;;
44588;SDS011;30298;52.562;13.414;2023-06-01T07:40:45;7.43;;;4.90;;
44588;SDS011;30298;52.562;13.414;2023-06-01T07:43:11;11.48;;;5.18;;
44588;SDS011;30298;52.562;13.414;2023-06-01T07:45:38;8.65;;;5.13;;
44588;SDS011;30298;52.562;13.414;2023-06-01T07:48:04;9.57;;;5.30;;
44588;SDS011;30298;52.562;13.414;2023-06-01T07:50:29;13.43;;;5.60;;
44588;SDS011;30298;52.562;13.414;2023-06-01T07:52:56;13.73;;;5.45;;
44588;SDS011;30298;52.562;13.414;2023-06-01T07:55:22;10.93;;;5.68;;
44588;SDS011;30298;52.562;13.414;2023-06-01T07:57:47;10.40;;;5.00;;
44588;SDS011;30298;52.562;13.414;2023-06-01T08:00:13;11.10;;;5.78;;
44588;SDS011;30298;52.562;13.414;2023-06-01T08:02:40;10.35;;;5.88;;
44588;SDS011;30298;52.562;13.414;2023-06-01T08:07:31;13.23;;;5.75;;
44588;SDS011;30298;52.562;13.414;2023-06-01T08:09:57;14.38;;;5.75;;
44588;SDS011;30298;52.562;13.414;2023-06-01T08:17:17;10.63;;;4.78;;
44588;SDS011;30298;52.562;13.414;2023-06-01T08:19:43;8.95;;;4.95;;
44588;SDS011;30298;52.562;13.414;2023-06-01T08:22:09;13.77;;;5.23;;
44588;SDS011;30298;52.562;13.414;2023-06-01T08:24:34;11.33;;;4.97;;
44588;SDS011;30298;52.562;13.414;2023-06-01T08:27:03;10.50;;;5.03;;
44588;SDS011;30298;52.562;13.414;2023-06-01T08:29:40;11.80;;;5.55;;
44588;SDS011;30298;52.562;13.414;2023-06-01T08:32:05;10.27;;;5.27;;
44588;SDS011;30298;52.562;13.414;2023-06-01T08:34:31;9.23;;;5.57;;
44588;SDS011;30298;52.562;13.414;2023-06-01T08:36:56;9.87;;;5.20;;
44588;SDS011;30298;52.562;13.414;2023-06-01T08:39:22;7.37;;;4.90;;
44588;SDS011;30298;52.562;13.414;2023-06-01T08:41:57;13.38;;;5.68;;
44588;SDS011;30298;52.562;13.414;2023-06-01T08:44:24;10.25;;;5.05;;
44588;SDS011;30298;52.562;13.414;2023-06-01T08:46:51;12.40;;;5.55;;
44588;SDS011;30298;52.562;13.414;2023-06-01T08:49:17;7.82;;;4.80;;
44588;SDS011;30298;52.562;13.414;2023-06-01T08:51:44;11.85;;;4.88;;
44588;SDS011;30298;52.562;13.414;2023-06-01T08:56:35;10.02;;;4.53;;
44588;SDS011;30298;52.562;13.414;2023-06-01T08:59:01;10.30;;;5.82;;
44588;SDS011;30298;52.562;13.414;2023-06-01T09:01:26;7.93;;;5.10;;
44588;SDS011;30298;52.562;13.414;2023-06-01T09:03:53;12.32;;;5.00;;
44588;SDS011;30298;52.562;13.414;2023-06-01T09:06:19;9.35;;;5.00;;
44588;SDS011;30298;52.562;13.414;2023-06-01T09:08:44;12.93;;;5.38;;
44588;SDS011;30298;52.562;13.414;2023-06-01T09:11:10;14.30;;;6.13;;
44588;SDS011;30298;52.562;13.414;2023-06-01T09:13:39;15.37;;;5.77;;
44588;SDS011;30298;52.562;13.414;2023-06-01T09:16:05;12.30;;;5.03;;
44588;SDS011;30298;52.562;13.414;2023-06-01T09:18:31;13.30;;;5.13;;
44588;SDS011;30298;52.562;13.414;2023-06-01T09:21:12;9.68;;;4.65;;
44588;SDS011;30298;52.562;13.414;2023-06-01T09:23:38;10.75;;;4.70;;
44588;SDS011;30298;52.562;13.414;2023-06-01T09:26:13;9.07;;;4.57;;
44588;SDS011;30298;52.562;13.414;2023-06-01T09:34:06;8.40;;;4.50;;
44588;SDS011;30298;52.562;13.414;2023-06-01T09:36:32;8.10;;;4.50;;
44588;SDS011;30298;52.562;13.414;2023-06-01T09:39:04;11.38;;;4.43;;
44588;SDS011;30298;52.562;13.414;2023-06-01T09:44:11;8.70;;;5.18;;
44588;SDS011;30298;52.562;13.414;2023-06-01T09:46:49;9.05;;;4.65;;
44588;SDS011;30298;52.562;13.414;2023-06-01T09:49:21;7.25;;;4.45;;
44588;SDS011;30298;52.562;13.414;2023-06-01T09:51:51;8.32;;;4.13;;
44588;SDS011;30298;52.562;13.414;2023-06-01T09:56:42;9.65;;;4.22;;
44588;SDS011;30298;52.562;13.414;2023-06-01T09:59:08;8.48;;;4.85;;
44588;SDS011;30298;52.562;13.414;2023-06-01T10:01:34;9.80;;;4.53;;
44588;SDS011;30298;52.562;13.414;2023-06-01T10:04:00;9.52;;;4.45;;
44588;SDS011;30298;52.562;13.414;2023-06-01T10:06:25;9.15;;;5.40;;
44588;SDS011;30298;52.562;13.414;2023-06-01T10:08:50;15.13;;;5.47;;
44588;SDS011;30298;52.562;13.414;2023-06-01T10:11:17;12.25;;;6.05;;
44588;SDS011;30298;52.562;13.414;2023-06-01T10:13:43;11.88;;;5.65;;
44588;SDS011;30298;52.562;13.414;2023-06-01T10:16:09;12.68;;;5.22;;
44588;SDS011;30298;52.562;13.414;2023-06-01T10:18:37;10.63;;;5.28;;
44588;SDS011;30298;52.562;13.414;2023-06-01T10:21:03;9.43;;;5.22;;
44588;SDS011;30298;52.562;13.414;2023-06-01T10:23:31;10.90;;;6.13;;
44588;SDS011;30298;52.562;13.414;2023-06-01T10:26:15;11.10;;;6.10;;
44588;SDS011;30298;52.562;13.414;2023-06-01T10:28:47;10.27;;;5.70;;
44588;SDS011;30298;52.562;13.414;2023-06-01T10:34:17;9.13;;;6.50;;
44588;SDS011;30298;52.562;13.414;2023-06-01T10:39:26;13.43;;;6.40;;
44588;SDS011;30298;52.562;13.414;2023-06-01T10:41:52;12.73;;;6.15;;
44588;SDS011;30298;52.562;13.414;2023-06-01T10:47:01;12.75;;;6.90;;
44588;SDS011;30298;52.562;13.414;2023-06-01T10:50:14;10.20;;;6.60;;
44588;SDS011;30298;52.562;13.414;2023-06-01T10:54:53;12.20;;;7.32;;
44588;SDS011;30298;52.562;13.414;2023-06-01T10:57:22;14.57;;;7.32;;
44588;SDS011;30298;52.562;13.414;2023-06-01T11:02:33;11.18;;;6.55;;
44588;SDS011;30298;52.562;13.414;2023-06-01T11:05:32;10.45;;;6.50;;
44588;SDS011;30298;52.562;13.414;2023-06-01T11:07:43;10.35;;;6.63;;
44588;SDS011;30298;52.562;13.414;2023-06-01T11:10:09;11.95;;;7.00;;
44588;SDS011;30298;52.562;13.414;2023-06-01T11:13:20;10.32;;;6.60;;
44588;SDS011;30298;52.562;13.414;2023-06-01T11:15:26;11.15;;;7.07;;
44588;SDS011;30298;52.562;13.414;2023-06-01T11:17:51;12.57;;;7.25;;
44588;SDS011;30298;52.562;13.414;2023-06-01T11:20:18;15.52;;;6.75;;
44588;SDS011;30298;52.562;13.414;2023-06-01T11:22:45;7.15;;;5.95;;
44588;SDS011;30298;52.562;13.414;2023-06-01T11:25:12;11.70;;;7.10;;
44588;SDS011;30298;52.562;13.414;2023-06-01T11:27:44;9.57;;;7.32;;
44588;SDS011;30298;52.562;13.414;2023-06-01T11:30:11;14.07;;;6.85;;
44588;SDS011;30298;52.562;13.414;2023-06-01T11:32:36;8.93;;;6.35;;
44588;SDS011;30298;52.562;13.414;2023-06-01T11:35:25;9.07;;;6.32;;
44588;SDS011;30298;52.562;13.414;2023-06-01T11:37:53;9.52;;;6.47;;
44588;SDS011;30298;52.562;13.414;2023-06-01T11:40:18;15.70;;;7.38;;
44588;SDS011;30298;52.562;13.414;2023-06-01T11:42:45;10.50;;;6.57;;
44588;SDS011;30298;52.562;13.414;2023-06-01T11:45:14;11.63;;;6.90;;
44588;SDS011;30298;52.562;13.414;2023-06-01T11:47:40;6.90;;;5.32;;
44588;SDS011;30298;52.562;13.414;2023-06-01T11:52:31;12.77;;;7.10;;
44588;SDS011;30298;52.562;13.414;2023-06-01T11:55:01;12.05;;;6.28;;
44588;SDS011;30298;52.562;13.414;2023-06-01T11:57:27;9.75;;;6.22;;
44588;SDS011;30298;52.562;13.414;2023-06-01T12:02:22;11.18;;;6.45;;
44588;SDS011;30298;52.562;13.414;2023-06-01T12:05:04;8.20;;;5.70;;
44588;SDS011;30298;52.562;13.414;2023-06-01T12:07:49;8.43;;;5.55;;
44588;SDS011;30298;52.562;13.414;2023-06-01T12:10:16;8.90;;;5.63;;
44588;SDS011;30298;52.562;13.414;2023-06-01T12:15:08;8.45;;;5.78;;
44588;SDS011;30298;52.562;13.414;2023-06-01T12:17:52;9.23;;;6.00;;
44588;SDS011;30298;52.562;13.414;2023-06-01T12:20:28;7.63;;;5.68;;
44588;SDS011;30298;52.562;13.414;2023-06-01T12:22:53;13.75;;;7.13;;
44588;SDS011;30298;52.562;13.414;2023-06-01T12:25:21;8.65;;;6.22;;
44588;SDS011;30298;52.562;13.414;2023-06-01T12:27:58;20.23;;;6.72;;
44588;SDS011;30298;52.562;13.414;2023-06-01T12:30:24;8.93;;;6.65;;
44588;SDS011;30298;52.562;13.414;2023-06-01T12:35:14;11.88;;;6.25;;
44588;SDS011;30298;52.562;13.414;2023-06-01T12:40:05;11.63;;;6.80;;
44588;SDS011;30298;52.562;13.414;2023-06-01T12:44:56;10.77;;;6.32;;
44588;SDS011;30298;52.562;13.414;2023-06-01T12:47:24;11.52;;;6.97;;
44588;SDS011;30298;52.562;13.414;2023-06-01T12:52:14;9.95;;;6.78;;
44588;SDS011;30298;52.562;13.414;2023-06-01T12:57:12;8.63;;;6.20;;
44588;SDS011;30298;52.562;13.414;2023-06-01T12:59:37;9.93;;;6.20;;
44588;SDS011;30298;52.562;13.414;2023-06-01T13:04:28;8.68;;;6.05;;
44588;SDS011;30298;52.562;13.414;2023-06-01T13:06:56;11.70;;;6.82;;
44588;SDS011;30298;52.562;13.414;2023-06-01T13:11:47;15.00;;;7.35;;
44588;SDS011;30298;52.562;13.414;2023-06-01T13:16:37;8.50;;;5.72;;
44588;SDS011;30298;52.562;13.414;2023-06-01T13:21:29;8.77;;;5.70;;
44588;SDS011;30298;52.562;13.414;2023-06-01T13:26:19;10.45;;;5.70;;
44588;SDS011;30298;52.562;13.414;2023-06-01T13:28:47;9.95;;;5.90;;
44588;SDS011;30298;52.562;13.414;2023-06-01T13:31:12;12.63;;;5.70;;
44588;SDS011;30298;52.562;13.414;2023-06-01T13:33:38;7.95;;;5.30;;
44588;SDS011;30298;52.562;13.414;2023-06-01T13:36:04;13.40;;;7.03;;
44588;SDS011;30298;52.562;13.414;2023-06-01T13:38:30;8.43;;;5.45;;
44588;SDS011;30298;52.562;13.414;2023-06-01T13:40:56;7.93;;;4.97;;
44588;SDS011;30298;52.562;13.414;2023-06-01T13:43:21;10.02;;;5.50;;
44588;SDS011;30298;52.562;13.414;2023-06-01T13:45:47;9.20;;;5.18;;
44588;SDS011;30298;52.562;13.414;2023-06-01T13:50:37;9.55;;;5.45;;
44588;SDS011;30298;52.562;13.414;2023-06-01T13:55:30;12.90;;;5.93;;
44588;SDS011;30298;52.562;13.414;2023-06-01T14:00:21;11.82;;;5.57;;
44588;SDS011;30298;52.562;13.414;2023-06-01T14:02:46;9.15;;;5.38;;
44588;SDS011;30298;52.562;13.414;2023-06-01T14:07:39;11.05;;;7.38;;
44588;SDS011;30298;52.562;13.414;2023-06-01T14:10:04;10.50;;;5.32;;
44588;SDS011;30298;52.562;13.414;2023-06-01T14:12:32;11.07;;;5.13;;
44588;SDS011;30298;52.562;13.414;2023-06-01T14:14:57;9.88;;;5.30;;
44588;SDS011;30298;52.562;13.414;2023-06-01T14:17:23;8.50;;;5.55;;
44588;SDS011;30298;52.562;13.414;2023-06-01T14:19:48;8.52;;;5.25;;
44588;SDS011;30298;52.562;13.414;2023-06-01T14:24:39;8.75;;;5.18;;
44588;SDS011;30298;52.562;13.414;2023-06-01T14:27:04;8.45;;;4.80;;
44588;SDS011;30298;52.562;13.414;2023-06-01T14:29:31;13.82;;;5.70;;
44588;SDS011;30298;52.562;13.414;2023-06-01T14:34:22;11.43;;;4.90;;
44588;SDS011;30298;52.562;13.414;2023-06-01T14:36:47;11.35;;;5.28;;
44588;SDS011;30298;52.562;13.414;2023-06-01T14:39:13;9.27;;;4.82;;
44588;SDS011;30298;52.562;13.414;2023-06-01T14:41:38;13.57;;;5.07;;
44588;SDS011;30298;52.562;13.414;2023-06-01T14:44:05;10.55;;;4.80;;
44588;SDS011;30298;52.562;13.414;2023-06-01T14:48:56;10.82;;;4.88;;
44588;SDS011;30298;52.562;13.414;2023-06-01T14:51:24;9.50;;;4.78;;
44588;SDS011;30298;52.562;13.414;2023-06-01T14:53:50;10.73;;;4.90;;
44588;SDS011;30298;52.562;13.414;2023-06-01T14:58:40;9.97;;;5.13;;
44588;SDS011;30298;52.562;13.414;2023-06-01T15:01:05;10.52;;;5.47;;
44588;SDS011;30298;52.562;13.414;2023-06-01T15:03:31;11.07;;;5.10;;
44588;SDS011;30298;52.562;13.414;2023-06-01T15:05:56;10.85;;;5.65;;
44588;SDS011;30298;52.562;13.414;2023-06-01T15:08:21;8.93;;;5.18;;
44588;SDS011;30298;52.562;13.414;2023-06-01T15:10:47;12.23;;;5.75;;
44588;SDS011;30298;52.562;13.414;2023-06-01T15:13:12;9.75;;;4.93;;
44588;SDS011;30298;52.562;13.414;2023-06-01T15:15:41;11.48;;;5.43;;
44588;SDS011;30298;52.562;13.414;2023-06-01T15:18:06;11.18;;;5.10;;
44588;SDS011;30298;52.562;13.414;2023-06-01T15:20:32;9.63;;;4.70;;
44588;SDS011;30298;52.562;13.414;2023-06-01T15:25:22;9.90;;;4.57;;
44588;SDS011;30298;52.562;13.414;2023-06-01T15:27:48;8.70;;;4.70;;
44588;SDS011;30298;52.562;13.414;2023-06-01T15:32:38;9.38;;;5.25;;
44588;SDS011;30298;52.562;13.414;2023-06-01T15:35:04;10.50;;;4.47;;
44588;SDS011;30298;52.562;13.414;2023-06-01T15:37:30;10.65;;;4.55;;
44588;SDS011;30298;52.562;13.414;2023-06-01T15:39:55;7.72;;;4.53;;
44588;SDS011;30298;52.562;13.414;2023-06-01T15:44:45;7.78;;;4.20;;
44588;SDS011;30298;52.562;13.414;2023-06-01T15:47:11;8.07;;;3.90;;
44588;SDS011;30298;52.562;13.414;2023-06-01T15:52:01;9.65;;;4.35;;
44588;SDS011;30298;52.562;13.414;2023-06-01T15:54:32;10.75;;;4.03;;
44588;SDS011;30298;52.562;13.414;2023-06-01T15:57:01;7.45;;;4.18;;
44588;SDS011;30298;52.562;13.414;2023-06-01T15:59:28;8.02;;;4.28;;
44588;SDS011;30298;52.562;13.414;2023-06-01T16:04:19;9.47;;;4.17;;
44588;SDS011;30298;52.562;13.414;2023-06-01T16:09:10;8.60;;;4.40;;
44588;SDS011;30298;52.562;13.414;2023-06-01T16:14:00;9.97;;;4.57;;
44588;SDS011;30298;52.562;13.414;2023-06-01T16:18:51;18.00;;;4.82;;
44588;SDS011;30298;52.562;13.414;2023-06-01T16:23:41;10.68;;;3.83;;
44588;SDS011;30298;52.562;13.414;2023-06-01T16:28:32;9.70;;;3.80;;
44588;SDS011;30298;52.562;13.414;2023-06-01T16:31:00;12.88;;;4.82;;